createdAt,value
2022-10-18T00:01:11.606Z,101513.00
2022-10-18T00:04:14.584Z,101509.13
2022-10-18T00:07:16.990Z,101508.94
2022-10-18T00:10:20.028Z,101510.22
2022-10-18T00:13:23.297Z,101503.34
2022-10-18T00:16:26.887Z,101503.66
2022-10-18T00:19:29.629Z,101502.56
2022-10-18T00:22:35.376Z,101495.88
2022-10-18T00:25:38.211Z,101496.91
2022-10-18T00:28:42.272Z,101489.81
2022-10-18T00:31:46.130Z,101486.94
2022-10-18T00:34:49.262Z,101481.41
2022-10-18T00:37:52.463Z,101480.13
2022-10-18T00:40:55.269Z,101484.66
2022-10-18T00:44:07.740Z,101485.06
2022-10-18T00:47:13.646Z,101484.53
2022-10-18T00:50:16.607Z,101479.44
2022-10-18T00:53:22.451Z,101481.47
2022-10-18T00:56:25.626Z,101476.16
2022-10-18T00:59:30.705Z,101471.53
2022-10-18T01:02:33.467Z,101474.53
2022-10-18T01:05:41.408Z,101470.03
2022-10-18T01:09:12.277Z,101471.44
2022-10-18T01:12:27.480Z,101469.44
2022-10-18T01:15:35.870Z,101468.09
2022-10-18T01:18:48.850Z,101474.50
2022-10-18T01:22:05.392Z,101457.03
2022-10-18T01:25:52.714Z,101447.56
2022-10-18T01:29:02.956Z,101452.88
2022-10-18T01:32:26.733Z,101448.03
2022-10-18T01:35:38.475Z,101446.22
2022-10-18T01:38:43.652Z,101447.16
2022-10-18T01:41:49.374Z,101445.00
2022-10-18T01:44:53.749Z,101435.50
2022-10-18T01:47:57.979Z,101433.09
2022-10-18T01:51:00.936Z,101427.41
2022-10-18T01:54:04.472Z,101427.97
2022-10-18T01:57:33.438Z,101425.59
2022-10-18T02:00:44.581Z,101418.78
2022-10-18T02:03:53.034Z,101421.69
2022-10-18T02:07:03.752Z,101421.38
2022-10-18T02:10:33.983Z,101419.13
2022-10-18T02:14:02.210Z,101418.62
2022-10-18T02:17:08.847Z,101420.19
2022-10-18T02:20:13.389Z,101421.88
2022-10-18T02:23:21.328Z,101422.03
2022-10-18T02:26:24.071Z,101420.72
2022-10-18T02:29:27.573Z,101421.53
2022-10-18T02:32:51.810Z,101421.62
2022-10-18T02:36:02.684Z,101415.00
2022-10-18T02:39:12.474Z,101414.66
2022-10-18T02:42:16.257Z,101415.59
2022-10-18T02:45:19.067Z,101419.59
2022-10-18T02:48:21.894Z,101423.06
2022-10-18T02:51:25.206Z,101417.78
2022-10-18T02:54:28.155Z,101413.28
2022-10-18T02:57:30.953Z,101421.16
2022-10-18T03:00:34.387Z,101426.28
2022-10-18T03:03:37.003Z,101423.84
2022-10-18T03:06:39.887Z,101412.00
2022-10-18T03:09:42.380Z,101417.31
2022-10-18T03:12:45.329Z,101417.59
2022-10-18T03:15:48.677Z,101422.94
2022-10-18T03:18:51.574Z,101424.22
2022-10-18T03:21:54.164Z,101422.50
2022-10-18T03:24:56.943Z,101427.41
2022-10-18T03:27:59.434Z,101427.75
2022-10-18T03:31:04.015Z,101429.72
2022-10-18T03:34:07.296Z,101426.94
2022-10-18T03:37:10.225Z,101420.03
2022-10-18T03:40:12.945Z,101428.06
2022-10-18T03:43:16.757Z,101428.72
2022-10-18T03:46:19.252Z,101437.63
2022-10-18T03:49:22.189Z,101426.31
2022-10-18T03:52:24.747Z,101427.44
2022-10-18T03:55:27.554Z,101444.75
2022-10-18T03:58:30.217Z,101438.72
2022-10-18T04:01:33.205Z,101439.38
2022-10-18T04:04:36.115Z,101448.19
2022-10-18T04:07:38.675Z,101444.34
2022-10-18T04:10:45.216Z,101445.94
2022-10-18T04:13:48.651Z,101445.06
2022-10-18T04:16:51.736Z,101437.03
2022-10-18T04:19:54.389Z,101443.28
2022-10-18T04:22:57.905Z,101440.31
2022-10-18T04:26:01.570Z,101432.66
2022-10-18T04:29:04.705Z,101433.81
2022-10-18T04:32:07.792Z,101436.78
2022-10-18T04:35:11.348Z,101431.53
2022-10-18T04:38:16.565Z,101429.41
2022-10-18T04:41:19.434Z,101422.66
2022-10-18T04:44:22.014Z,101423.81
2022-10-18T04:47:24.926Z,101430.63
2022-10-18T04:50:28.812Z,101423.13
2022-10-18T04:53:32.720Z,101427.56
2022-10-18T04:56:35.291Z,101419.09
2022-10-18T04:59:38.063Z,101420.44
2022-10-18T05:02:40.652Z,101416.19
2022-10-18T05:06:02.952Z,101414.22
2022-10-18T05:09:06.221Z,101406.28
2022-10-18T05:12:09.334Z,101412.09
2022-10-18T05:15:11.868Z,101407.34
2022-10-18T05:18:14.646Z,101412.91
2022-10-18T05:21:17.364Z,101423.03
2022-10-18T05:24:21.930Z,101416.03
2022-10-18T05:27:26.574Z,101404.22
2022-10-18T05:30:37.906Z,101405.78
2022-10-18T05:33:40.430Z,101401.50
2022-10-18T05:36:43.285Z,101404.44
2022-10-18T05:39:45.831Z,101404.91
2022-10-18T05:42:52.237Z,101415.53
2022-10-18T05:45:54.892Z,101418.69
2022-10-18T05:48:58.002Z,101418.62
2022-10-18T05:52:00.765Z,101417.75
2022-10-18T05:55:04.004Z,101411.44
2022-10-18T05:58:06.677Z,101410.53
2022-10-18T06:01:10.634Z,101416.22
2022-10-18T06:04:13.534Z,101405.78
2022-10-18T06:07:16.592Z,101413.25
2022-10-18T06:10:23.184Z,101409.97
2022-10-18T06:13:26.220Z,101421.28
2022-10-18T06:16:32.419Z,101418.44
2022-10-18T06:19:35.354Z,101416.31
2022-10-18T06:22:38.476Z,101415.72
2022-10-18T06:25:41.426Z,101422.88
2022-10-18T06:28:45.770Z,101433.50
2022-10-18T06:31:48.757Z,101426.37
2022-10-18T06:34:51.642Z,101434.91
2022-10-18T06:37:54.451Z,101435.12
2022-10-18T06:40:58.368Z,101438.00
2022-10-18T06:44:07.111Z,101433.37
2022-10-18T06:47:13.846Z,101440.72
2022-10-18T06:50:16.744Z,101437.13
2022-10-18T06:53:19.506Z,101440.28
2022-10-18T06:56:22.114Z,101434.44
2022-10-18T06:59:28.880Z,101436.50
2022-10-18T07:02:34.071Z,101439.25
2022-10-18T07:05:37.450Z,101441.91
2022-10-18T07:08:41.540Z,101445.56
2022-10-18T07:11:44.532Z,101442.91
2022-10-18T07:14:47.216Z,101441.00
2022-10-18T07:17:50.516Z,101446.41
2022-10-18T07:20:53.526Z,101445.44
2022-10-18T07:23:56.555Z,101445.50
2022-10-18T07:26:59.085Z,101450.06
2022-10-18T07:30:02.724Z,101446.50
2022-10-18T07:33:05.364Z,101442.25
2022-10-18T07:36:09.941Z,101438.88
2022-10-18T07:39:12.531Z,101441.22
2022-10-18T07:42:15.634Z,101430.13
2022-10-18T07:45:18.862Z,101427.97
2022-10-18T07:48:21.946Z,101426.31
2022-10-18T07:51:24.699Z,101424.25
2022-10-18T07:54:27.495Z,101427.16
2022-10-18T07:57:30.384Z,101420.69
2022-10-18T08:00:34.734Z,101413.94
2022-10-18T08:03:38.400Z,101420.56
2022-10-18T08:06:43.686Z,101413.69
2022-10-18T08:09:46.745Z,101409.28
2022-10-18T08:12:49.734Z,101401.94
2022-10-18T08:16:02.282Z,101405.97
2022-10-18T08:19:05.157Z,101400.75
2022-10-18T08:22:07.882Z,101398.91
2022-10-18T08:25:10.388Z,101397.03
2022-10-18T08:28:14.145Z,101384.25
2022-10-18T08:31:18.848Z,101392.50
2022-10-18T08:34:25.307Z,101393.53
2022-10-18T08:37:27.946Z,101393.97
2022-10-18T08:40:37.645Z,101380.75
2022-10-18T08:44:14.703Z,101379.44
2022-10-18T08:47:21.874Z,101376.13
2022-10-18T08:50:35.415Z,101368.31
2022-10-18T08:53:55.385Z,101369.72
2022-10-18T08:57:04.815Z,101367.75
2022-10-18T09:00:18.250Z,101361.56
2022-10-18T09:04:06.208Z,101346.47
2022-10-18T09:07:21.156Z,101346.84
2022-10-18T09:10:27.003Z,101348.53
2022-10-18T09:13:51.529Z,101339.09
2022-10-18T09:17:20.732Z,101336.75
2022-10-18T09:20:27.371Z,101343.28
2022-10-18T09:24:00.320Z,101333.38
2022-10-18T09:27:10.405Z,101336.25
2022-10-18T09:30:37.998Z,101333.84
2022-10-18T09:33:52.544Z,101328.78
2022-10-18T09:37:00.081Z,101333.94
2022-10-18T09:40:25.232Z,101322.81
2022-10-18T09:43:42.424Z,101332.28
2022-10-18T09:46:50.801Z,101328.28
2022-10-18T09:50:03.561Z,101321.06
2022-10-18T09:53:27.312Z,101322.47
2022-10-18T09:56:39.395Z,101314.97
2022-10-18T09:59:49.447Z,101307.13
2022-10-18T10:02:54.841Z,101305.69
2022-10-18T10:06:14.847Z,101301.31
2022-10-18T10:09:24.909Z,101294.66
2022-10-18T10:12:34.138Z,101286.28
2022-10-18T10:15:38.340Z,101299.91
2022-10-18T10:18:44.942Z,101289.16
2022-10-18T10:21:50.319Z,101272.41
2022-10-18T10:24:54.942Z,101268.91
2022-10-18T10:28:03.943Z,101268.63
2022-10-18T10:31:24.913Z,101260.03
2022-10-18T10:34:29.584Z,101245.84
2022-10-18T10:37:36.006Z,101247.09
2022-10-18T10:40:52.197Z,101241.38
2022-10-18T10:43:55.205Z,101239.06
2022-10-18T10:46:58.483Z,101239.56
2022-10-18T10:50:12.078Z,101232.63
2022-10-18T10:53:42.057Z,101219.91
2022-10-18T10:57:01.315Z,101225.00
2022-10-18T11:00:04.488Z,101209.78
2022-10-18T11:03:28.447Z,101205.47
2022-10-18T11:06:32.067Z,101200.38
2022-10-18T11:09:53.306Z,101202.81
2022-10-18T11:13:05.052Z,101208.12
2022-10-18T11:16:20.303Z,101197.25
2022-10-18T11:19:55.578Z,101184.72
2022-10-18T11:23:18.195Z,101179.84
2022-10-18T11:26:42.881Z,101168.41
2022-10-18T11:30:02.741Z,101169.78
2022-10-18T11:33:18.202Z,101167.78
2022-10-18T11:37:02.341Z,101157.47
2022-10-18T11:40:45.075Z,101158.47
2022-10-18T11:44:02.801Z,101147.50
2022-10-18T11:47:32.804Z,101147.09
2022-10-18T11:50:50.694Z,101144.00
2022-10-18T11:54:27.354Z,101140.16
2022-10-18T11:58:08.312Z,101139.94
2022-10-18T12:01:43.727Z,101138.37
2022-10-18T12:05:22.638Z,101126.69
2022-10-18T12:08:25.794Z,101113.72
2022-10-18T12:11:40.955Z,101107.41
2022-10-18T12:14:59.181Z,101103.88
2022-10-18T12:18:08.086Z,101099.84
2022-10-18T12:21:12.421Z,101090.03
2022-10-18T12:24:20.388Z,101088.13
2022-10-18T12:27:36.560Z,101085.09
2022-10-18T12:30:55.239Z,101081.91
2022-10-18T12:34:15.939Z,101064.56
2022-10-18T12:37:41.559Z,101062.31
2022-10-18T12:40:49.584Z,101056.00
2022-10-18T12:43:57.408Z,101051.44
2022-10-18T12:47:02.384Z,101055.78
2022-10-18T12:50:26.755Z,101052.78
2022-10-18T12:53:31.716Z,101045.62
2022-10-18T12:56:42.166Z,101037.91
2022-10-18T12:59:44.704Z,101038.91
2022-10-18T13:03:11.510Z,101029.22
2022-10-18T13:06:14.128Z,101023.81
2022-10-18T13:09:20.803Z,101024.03
2022-10-18T13:12:23.334Z,101017.31
2022-10-18T13:15:41.951Z,101013.59
2022-10-18T13:18:57.091Z,101013.37
2022-10-18T13:22:14.173Z,101005.28
2022-10-18T13:25:45.042Z,101002.53
2022-10-18T13:29:16.946Z,101004.94
2022-10-18T13:32:31.578Z,100998.31
2022-10-18T13:35:52.744Z,101008.47
2022-10-18T13:39:07.351Z,101000.78
2022-10-18T13:42:33.957Z,100994.19
2022-10-18T13:45:45.431Z,100997.75
2022-10-18T13:48:50.630Z,100997.94
2022-10-18T13:51:53.773Z,100992.47
2022-10-18T13:55:15.022Z,100996.00
2022-10-18T13:58:30.100Z,100989.66
2022-10-18T14:01:54.732Z,100985.50
2022-10-18T14:05:28.903Z,100989.97
2022-10-18T14:08:49.528Z,100980.44
2022-10-18T14:12:08.129Z,100976.56
2022-10-18T14:15:23.230Z,100966.16
2022-10-18T14:18:31.875Z,100959.56
2022-10-18T14:21:39.523Z,100960.09
2022-10-18T14:24:56.338Z,100963.59
2022-10-18T14:28:17.362Z,100962.91
2022-10-18T14:31:20.453Z,100953.47
2022-10-18T14:34:23.016Z,100950.97
2022-10-18T14:37:34.754Z,100950.13
2022-10-18T14:40:40.698Z,100954.38
2022-10-18T14:43:44.661Z,100946.34
2022-10-18T14:47:08.422Z,100948.50
2022-10-18T14:50:30.515Z,100946.06
2022-10-18T14:53:39.723Z,100946.06
2022-10-18T14:56:43.595Z,100935.69
2022-10-18T14:59:53.734Z,100930.97
2022-10-18T15:02:57.015Z,100924.50
2022-10-18T15:06:02.675Z,100916.66
2022-10-18T15:09:06.340Z,100911.81
2022-10-18T15:12:13.860Z,100912.47
2022-10-18T15:15:29.343Z,100909.78
2022-10-18T15:21:36.311Z,100910.56
2022-10-18T15:24:40.963Z,100908.97
2022-10-18T15:27:50.272Z,100900.03
2022-10-18T15:30:54.011Z,100899.50
2022-10-18T15:34:18.603Z,100898.75
2022-10-18T15:37:37.577Z,100900.25
2022-10-18T15:40:42.452Z,100894.66
2022-10-18T15:43:44.940Z,100900.31
2022-10-18T15:46:50.530Z,100893.50
2022-10-18T15:50:00.597Z,100896.00
2022-10-18T15:53:46.376Z,100899.59
2022-10-18T15:56:49.173Z,100901.31
2022-10-18T16:00:17.656Z,100894.50
2022-10-18T16:03:25.055Z,100900.12
2022-10-18T16:06:28.648Z,100895.72
2022-10-18T16:09:31.516Z,100893.22
2022-10-18T16:12:33.947Z,100893.16
2022-10-18T16:15:36.692Z,100898.25
2022-10-18T16:18:39.429Z,100901.75
2022-10-18T16:21:43.009Z,100900.53
2022-10-18T16:24:45.634Z,100906.44
2022-10-18T16:27:49.139Z,100898.13
2022-10-18T16:31:00.134Z,100890.81
2022-10-18T16:34:03.188Z,100890.38
2022-10-18T16:37:06.332Z,100891.78
2022-10-18T16:40:28.067Z,100895.28
2022-10-18T16:43:31.528Z,100891.37
2022-10-18T16:46:35.676Z,100893.94
2022-10-18T16:49:38.259Z,100898.00
2022-10-18T16:52:41.897Z,100905.28
2022-10-18T16:55:44.943Z,100893.78
2022-10-18T16:58:49.412Z,100887.19
2022-10-18T17:01:52.089Z,100906.53
2022-10-18T17:04:55.022Z,100895.59
2022-10-18T17:08:00.354Z,100898.09
2022-10-18T17:11:03.282Z,100902.34
2022-10-18T17:14:05.851Z,100899.81
2022-10-18T17:17:12.312Z,100899.94
2022-10-18T17:20:26.216Z,100894.37
2022-10-18T17:23:30.051Z,100883.09
2022-10-18T17:26:33.322Z,100883.66
2022-10-18T17:29:36.401Z,100885.91
2022-10-18T17:32:39.324Z,100890.50
2022-10-18T17:35:44.085Z,100895.31
2022-10-18T17:38:50.796Z,100900.38
2022-10-18T17:41:55.496Z,100900.75
2022-10-18T17:44:57.925Z,100895.94
2022-10-18T17:48:00.892Z,100889.19
2022-10-18T17:51:09.489Z,100889.75
2022-10-18T17:54:12.930Z,100892.31
2022-10-18T17:57:16.233Z,100892.22
2022-10-18T18:00:19.542Z,100891.37
2022-10-18T18:03:23.242Z,100881.00
2022-10-18T18:06:34.090Z,100871.41
2022-10-18T18:09:37.056Z,100872.75
2022-10-18T18:12:40.529Z,100873.94
2022-10-18T18:15:43.441Z,100875.94
2022-10-18T18:18:48.585Z,100872.00
2022-10-18T18:21:53.703Z,100860.63
2022-10-18T18:24:57.304Z,100875.22
2022-10-18T18:28:05.042Z,100860.44
2022-10-18T18:31:15.986Z,100866.56
2022-10-18T18:34:22.186Z,100867.75
2022-10-18T18:37:24.845Z,100870.22
2022-10-18T18:40:27.838Z,100871.56
2022-10-18T18:43:31.567Z,100869.19
2022-10-18T18:46:39.364Z,100861.34
2022-10-18T18:49:42.097Z,100861.38
2022-10-18T18:52:45.345Z,100852.50
2022-10-18T18:55:50.686Z,100856.03
2022-10-18T18:58:55.013Z,100849.06
2022-10-18T19:01:57.793Z,100847.37
2022-10-18T19:05:00.687Z,100849.31
2022-10-18T19:08:05.417Z,100840.63
2022-10-18T19:11:09.487Z,100851.34
2022-10-18T19:14:12.887Z,100841.69
2022-10-18T19:17:15.690Z,100831.53
2022-10-18T19:20:18.788Z,100832.12
2022-10-18T19:23:21.522Z,100832.12
2022-10-18T19:26:44.435Z,100833.13
2022-10-18T19:29:50.018Z,100836.50
2022-10-18T19:33:01.189Z,100828.44
2022-10-18T19:36:06.982Z,100829.25
2022-10-18T19:39:18.516Z,100836.50
2022-10-18T19:42:26.133Z,100825.78
2022-10-18T19:45:34.421Z,100827.09
2022-10-18T19:48:37.463Z,100825.44
2022-10-18T19:51:40.638Z,100827.94
2022-10-18T19:54:44.997Z,100828.06
2022-10-18T19:57:47.503Z,100828.12
2022-10-18T20:00:55.723Z,100838.41
2022-10-18T20:03:59.541Z,100832.12
2022-10-18T20:07:02.862Z,100822.25
2022-10-18T20:10:06.239Z,100824.91
2022-10-18T20:13:09.746Z,100821.75
2022-10-18T20:16:14.281Z,100820.09
2022-10-18T20:19:16.844Z,100816.69
2022-10-18T20:22:19.976Z,100816.28
2022-10-18T20:25:22.604Z,100816.28
2022-10-18T20:28:26.084Z,100805.28
2022-10-18T20:31:31.171Z,100802.22
2022-10-18T20:34:34.405Z,100805.28
2022-10-18T20:37:37.265Z,100799.87
2022-10-18T20:40:42.613Z,100801.53
2022-10-18T20:43:50.306Z,100797.25
2022-10-18T20:46:53.178Z,100805.59
2022-10-18T20:49:55.630Z,100806.28
2022-10-18T20:53:00.156Z,100804.88
2022-10-18T20:56:15.021Z,100801.03
2022-10-18T20:59:18.047Z,100798.38
2022-10-18T21:02:21.238Z,100808.12
2022-10-18T21:05:24.470Z,100795.53
2022-10-18T21:08:27.065Z,100788.53
2022-10-18T21:11:32.076Z,100792.91
2022-10-18T21:14:34.817Z,100781.22
2022-10-18T21:17:37.793Z,100781.19
2022-10-18T21:20:49.522Z,100781.41
2022-10-18T21:23:53.806Z,100781.03
2022-10-18T21:26:56.682Z,100783.19
2022-10-18T21:29:59.583Z,100776.63
2022-10-18T21:33:02.440Z,100778.97
2022-10-18T21:36:05.611Z,100777.44
2022-10-18T21:39:12.212Z,100780.63
2022-10-18T21:42:15.081Z,100782.00
2022-10-18T21:45:18.288Z,100774.75
2022-10-18T21:51:28.672Z,100761.59
2022-10-18T21:54:31.579Z,100757.84
2022-10-18T22:00:43.005Z,100745.87
2022-10-18T22:03:48.612Z,100738.34
2022-10-18T22:06:52.167Z,100735.09
2022-10-18T22:09:55.119Z,100734.38
2022-10-18T22:12:57.801Z,100729.69
2022-10-18T22:16:03.031Z,100730.34
2022-10-18T22:19:06.808Z,100737.00
2022-10-18T22:22:10.226Z,100727.63
2022-10-18T22:25:12.727Z,100725.91
2022-10-18T22:28:16.636Z,100713.66
2022-10-18T22:31:21.629Z,100718.28
2022-10-18T22:34:27.609Z,100717.44
2022-10-18T22:37:30.463Z,100710.25
2022-10-18T22:40:33.835Z,100711.78
2022-10-18T22:43:37.409Z,100713.84
2022-10-18T22:46:41.682Z,100716.19
2022-10-18T22:49:44.091Z,100713.25
2022-10-18T22:52:46.922Z,100716.62
2022-10-18T22:55:50.526Z,100712.59
2022-10-18T22:58:53.647Z,100709.00
2022-10-18T23:01:56.181Z,100716.19
2022-10-18T23:04:58.996Z,100726.75
2022-10-18T23:08:01.458Z,100714.16
2022-10-18T23:11:05.350Z,100710.38
2022-10-18T23:14:07.972Z,100718.94
2022-10-18T23:17:10.745Z,100720.84
2022-10-18T23:20:17.713Z,100715.44
2022-10-18T23:23:20.515Z,100718.59
2022-10-18T23:26:26.294Z,100713.66
2022-10-18T23:29:29.077Z,100705.50
2022-10-18T23:32:32.006Z,100694.75
2022-10-18T23:35:36.733Z,100697.53
2022-10-18T23:38:40.346Z,100699.03
2022-10-18T23:41:43.123Z,100695.41
2022-10-18T23:44:45.627Z,100698.09
2022-10-18T23:47:48.490Z,100699.81
2022-10-18T23:50:54.220Z,100700.72
2022-10-18T23:53:56.946Z,100697.25
2022-10-18T23:56:59.562Z,100688.44
